Time;durP1;ratioP1;P1;durP2;ratioP2;P2;SDS_P1;SDS_P2;PMS_P1;PMS_P2;Temp;Humidity;BMP_temperature;BMP_pressure;BME280_temperature;BME280_humidity;BME280_pressure;Samples;Min_cycle;Max_cycle;Signal;HPM_P1;HPM_P2
2022/12/31 00:02:07;;;;;;;75.40;33.22;;;3.70;99.90;;;;;;5052537;28;20456;-67
2022/12/31 00:04:32;;;;;;;80.38;35.08;;;3.70;99.90;;;;;;5052716;28;20355;-65
2022/12/31 00:06:58;;;;;;;70.00;33.92;;;3.70;99.90;;;;;;5052763;28;20051;-67
2022/12/31 00:09:24;;;;;;;84.95;34.65;;;3.70;99.90;;;;;;5052033;28;20486;-67
2022/12/31 00:11:49;;;;;;;73.88;34.00;;;3.70;99.90;;;;;;5052629;28;20036;-67
2022/12/31 00:14:15;;;;;;;76.47;34.03;;;3.70;99.90;;;;;;5051965;28;20029;-66
2022/12/31 00:16:41;;;;;;;71.10;31.83;;;3.70;99.90;;;;;;5056299;28;20043;-66
2022/12/31 00:19:09;;;;;;;72.60;34.42;;;3.70;99.90;;;;;;5056354;28;20474;-68
2022/12/31 00:21:35;;;;;;;66.60;32.45;;;3.70;99.90;;;;;;5056657;28;20029;-67
2022/12/31 00:24:02;;;;;;;62.75;29.95;;;3.70;99.90;;;;;;5056459;28;20028;-67
2022/12/31 00:26:29;;;;;;;63.78;32.40;;;3.70;99.90;;;;;;5056186;28;20492;-67
2022/12/31 00:28:57;;;;;;;65.28;29.33;;;3.70;99.90;;;;;;5056645;28;20028;-67
2022/12/31 00:31:25;;;;;;;62.70;29.65;;;3.70;99.90;;;;;;5056176;28;20430;-67
2022/12/31 00:33:51;;;;;;;60.70;30.90;;;3.70;99.90;;;;;;5056480;28;20025;-67
2022/12/31 00:36:19;;;;;;;65.57;30.63;;;3.70;99.90;;;;;;5056083;28;20082;-67
2022/12/31 00:38:47;;;;;;;69.40;31.85;;;3.70;99.90;;;;;;5055872;28;20056;-67
2022/12/31 00:41:14;;;;;;;61.78;31.45;;;3.60;99.90;;;;;;5054711;28;20036;-67
2022/12/31 00:43:40;;;;;;;69.00;32.85;;;3.70;99.90;;;;;;5056104;28;20029;-66
2022/12/31 00:46:07;;;;;;;65.22;32.92;;;3.70;99.90;;;;;;5056103;28;20461;-66
2022/12/31 00:48:33;;;;;;;63.05;32.28;;;3.60;99.90;;;;;;5055811;28;20505;-67
2022/12/31 00:51:00;;;;;;;59.92;31.52;;;3.60;99.90;;;;;;5056071;28;20018;-66
2022/12/31 00:53:27;;;;;;;62.72;29.17;;;3.60;99.90;;;;;;5055897;28;20033;-67
2022/12/31 00:56:02;;;;;;;58.78;30.52;;;3.60;99.90;;;;;;5055806;28;20406;-66
2022/12/31 00:58:28;;;;;;;53.72;29.10;;;3.60;99.90;;;;;;5055944;28;20028;-66
2022/12/31 01:00:54;;;;;;;56.22;30.15;;;3.60;99.90;;;;;;5055980;28;20033;-67
2022/12/31 01:03:20;;;;;;;51.78;28.60;;;3.60;99.90;;;;;;5055301;28;20033;-67
2022/12/31 01:05:46;;;;;;;49.70;28.38;;;3.60;99.90;;;;;;5055639;28;20068;-67
2022/12/31 01:08:11;;;;;;;54.88;29.05;;;3.60;99.90;;;;;;5055262;28;20033;-67
2022/12/31 01:13:21;;;;;;;60.08;30.40;;;3.50;99.90;;;;;;5055472;28;20055;-67
2022/12/31 01:15:47;;;;;;;66.75;30.65;;;3.60;99.90;;;;;;5055441;28;20462;-67
2022/12/31 01:18:12;;;;;;;54.10;28.77;;;3.60;99.90;;;;;;5055307;28;20035;-67
2022/12/31 01:20:41;;;;;;;53.17;28.35;;;3.60;99.90;;;;;;5055753;28;20017;-67
2022/12/31 01:23:09;;;;;;;51.90;28.00;;;3.60;99.90;;;;;;5055689;28;20442;-67
2022/12/31 01:25:36;;;;;;;51.10;28.00;;;3.50;99.90;;;;;;5054803;28;20025;-67
2022/12/31 01:28:02;;;;;;;50.95;28.95;;;3.50;99.90;;;;;;5053978;28;20501;-67
2022/12/31 01:30:28;;;;;;;47.00;26.40;;;3.60;99.90;;;;;;5055070;28;20029;-67
2022/12/31 01:32:54;;;;;;;52.13;28.42;;;3.50;99.90;;;;;;5055433;28;20457;-67
2022/12/31 01:35:20;;;;;;;49.78;28.35;;;3.50;99.90;;;;;;5054692;28;20112;-66
2022/12/31 01:37:46;;;;;;;49.85;28.25;;;3.50;99.90;;;;;;5055422;28;20107;-66
2022/12/31 01:40:12;;;;;;;48.80;27.00;;;3.50;99.90;;;;;;5053264;28;20044;-66
2022/12/31 01:42:37;;;;;;;51.80;28.75;;;3.50;99.90;;;;;;5055171;28;20029;-66
2022/12/31 01:45:08;;;;;;;55.00;29.10;;;3.50;99.90;;;;;;5055126;28;20126;-66
2022/12/31 01:47:39;;;;;;;54.63;29.98;;;3.50;99.90;;;;;;5055012;28;20029;-66
2022/12/31 01:50:30;;;;;;;52.13;28.20;;;3.50;99.90;;;;;;5055186;28;20033;-66
2022/12/31 01:52:59;;;;;;;52.80;28.73;;;3.50;99.90;;;;;;5055230;28;20025;-66
2022/12/31 01:55:34;;;;;;;49.88;27.65;;;3.50;99.90;;;;;;5054361;28;20033;-66
2022/12/31 01:58:29;;;;;;;55.15;29.30;;;3.60;99.90;;;;;;5055077;28;20036;-66
2022/12/31 02:00:57;;;;;;;57.90;31.00;;;3.50;99.90;;;;;;5054241;28;20047;-67
2022/12/31 02:03:26;;;;;;;56.58;29.98;;;3.50;99.90;;;;;;5054069;28;20508;-66
2022/12/31 02:06:12;;;;;;;54.95;30.85;;;3.50;99.90;;;;;;5054405;28;20040;-66
2022/12/31 02:08:38;;;;;;;57.80;31.98;;;3.50;99.90;;;;;;5054442;28;20036;-66
2022/12/31 02:11:22;;;;;;;59.67;31.80;;;3.50;99.90;;;;;;5054615;28;20033;-66
2022/12/31 02:13:49;;;;;;;58.50;33.25;;;3.50;99.90;;;;;;5054743;28;20025;-66
2022/12/31 02:16:41;;;;;;;59.10;32.67;;;3.50;99.90;;;;;;5054538;28;20029;-69
2022/12/31 02:19:43;;;;;;;64.57;33.58;;;3.60;99.90;;;;;;5054657;28;20025;-66
2022/12/31 02:22:27;;;;;;;62.63;34.78;;;3.60;99.90;;;;;;5054484;28;20033;-66
2022/12/31 02:25:20;;;;;;;60.33;33.45;;;3.60;99.90;;;;;;5054680;28;20158;-66
2022/12/31 02:28:14;;;;;;;54.35;30.40;;;3.60;99.90;;;;;;5054394;28;20036;-66
2022/12/31 02:30:44;;;;;;;57.65;31.83;;;3.60;99.90;;;;;;5035205;28;20359;-66
2022/12/31 02:33:59;;;;;;;50.95;28.58;;;3.60;99.90;;;;;;5054312;28;20137;-66
2022/12/31 02:36:30;;;;;;;54.15;30.33;;;3.60;99.90;;;;;;5048862;28;20056;-66
2022/12/31 02:38:56;;;;;;;;;;;3.60;99.90;;;;;;5053786;28;20103;-66
2022/12/31 02:44:23;;;;;;;51.65;29.50;;;3.60;99.90;;;;;;5053813;28;20056;-66
2022/12/31 02:47:13;;;;;;;52.03;30.08;;;3.70;99.90;;;;;;5053842;28;20056;-67
2022/12/31 02:49:39;;;;;;;54.05;29.67;;;3.60;99.90;;;;;;5053575;28;20025;-66
2022/12/31 02:52:20;;;;;;;57.25;31.05;;;3.60;99.90;;;;;;5053976;28;20417;-67
2022/12/31 02:54:45;;;;;;;55.95;34.03;;;3.70;99.90;;;;;;5053589;28;20044;-67
2022/12/31 02:57:31;;;;;;;59.47;35.05;;;3.70;99.90;;;;;;5053922;28;20374;-67
2022/12/31 03:02:48;;;;;;;55.20;32.92;;;3.70;99.90;;;;;;5053732;28;20035;-67
2022/12/31 03:05:17;;;;;;;51.45;30.95;;;3.70;99.90;;;;;;5053584;28;20128;-66
2022/12/31 03:07:44;;;;;;;55.38;32.28;;;3.70;99.90;;;;;;5053220;28;20067;-67
2022/12/31 03:10:10;;;;;;;49.97;30.48;;;3.70;99.90;;;;;;5053589;28;20025;-67
2022/12/31 03:12:45;;;;;;;48.08;29.77;;;3.70;99.90;;;;;;5053123;28;20461;-67
2022/12/31 03:15:19;;;;;;;46.83;29.77;;;3.60;99.90;;;;;;5053240;28;20469;-67
2022/12/31 03:18:15;;;;;;;47.40;29.02;;;3.70;99.90;;;;;;5053538;28;20116;-66
2022/12/31 03:23:34;;;;;;;46.33;30.98;;;3.70;99.90;;;;;;5052964;28;20098;-67
2022/12/31 03:26:01;;;;;;;47.65;29.10;;;3.70;99.90;;;;;;5053212;28;20169;-66
2022/12/31 03:28:29;;;;;;;49.42;31.00;;;3.70;99.90;;;;;;5052825;28;20108;-67
2022/12/31 03:30:58;;;;;;;41.83;27.42;;;3.70;99.90;;;;;;5053178;28;20044;-66
2022/12/31 03:33:28;;;;;;;46.53;28.67;;;3.70;99.90;;;;;;5052115;28;20025;-67
2022/12/31 03:35:54;;;;;;;44.40;28.65;;;3.70;99.90;;;;;;5052820;28;20025;-66
2022/12/31 03:38:20;;;;;;;47.60;28.45;;;3.70;99.90;;;;;;5052843;28;20025;-67
2022/12/31 03:40:49;;;;;;;40.92;25.75;;;3.70;99.90;;;;;;5053018;28;20099;-67
2022/12/31 03:43:15;;;;;;;41.28;24.92;;;3.70;99.90;;;;;;5053098;28;20025;-67
2022/12/31 03:45:41;;;;;;;44.00;26.20;;;3.70;99.90;;;;;;5052513;28;20389;-67
2022/12/31 03:48:08;;;;;;;48.78;27.27;;;3.70;99.90;;;;;;5052834;28;20164;-66
2022/12/31 03:50:34;;;;;;;44.20;25.83;;;3.70;99.90;;;;;;5051705;28;20065;-66
2022/12/31 03:53:00;;;;;;;43.05;25.75;;;3.70;99.90;;;;;;5052942;28;20098;-66
2022/12/31 03:55:26;;;;;;;42.33;25.65;;;3.70;99.90;;;;;;5052427;28;20497;-67
2022/12/31 03:57:51;;;;;;;44.28;25.63;;;3.70;99.90;;;;;;5053077;28;20033;-66
2022/12/31 04:00:20;;;;;;;48.45;27.60;;;3.80;99.90;;;;;;5052988;28;20059;-67
2022/12/31 04:02:47;;;;;;;50.25;28.40;;;3.80;99.90;;;;;;5052010;28;20424;-67
2022/12/31 04:05:13;;;;;;;46.80;26.92;;;3.80;99.90;;;;;;5052649;28;20576;-65
2022/12/31 04:07:40;;;;;;;43.25;26.30;;;3.80;99.90;;;;;;5052576;28;20057;-66
2022/12/31 04:10:07;;;;;;;51.00;28.30;;;3.80;99.90;;;;;;5052592;28;20500;-66
2022/12/31 04:12:33;;;;;;;44.10;25.50;;;3.70;99.90;;;;;;5052715;28;20040;-67
2022/12/31 04:14:59;;;;;;;46.53;26.63;;;3.70;99.90;;;;;;5052817;28;20029;-66
2022/12/31 04:17:25;;;;;;;41.88;24.70;;;3.70;99.90;;;;;;5052547;28;20085;-67
2022/12/31 04:19:51;;;;;;;43.42;26.02;;;3.70;99.90;;;;;;5052919;28;20131;-66
2022/12/31 04:22:17;;;;;;;38.33;24.05;;;3.70;99.90;;;;;;5052702;28;20025;-67
2022/12/31 04:24:43;;;;;;;41.40;23.95;;;3.70;99.90;;;;;;5051825;28;20033;-65
2022/12/31 04:27:10;;;;;;;42.65;24.25;;;3.70;99.90;;;;;;5052488;28;20159;-65
2022/12/31 04:29:36;;;;;;;37.30;23.02;;;3.70;99.90;;;;;;5051815;28;20508;-67
2022/12/31 04:32:03;;;;;;;35.53;22.60;;;3.70;99.90;;;;;;5052271;28;20104;-66
2022/12/31 04:34:28;;;;;;;34.15;22.08;;;3.60;99.90;;;;;;5051733;28;20501;-66
2022/12/31 04:36:54;;;;;;;38.17;23.50;;;3.60;99.90;;;;;;5052179;28;20025;-65
2022/12/31 04:39:20;;;;;;;34.72;20.80;;;3.60;99.90;;;;;;5052550;28;20044;-67
2022/12/31 04:41:45;;;;;;;33.67;21.17;;;3.60;99.90;;;;;;5052071;28;20462;-67
2022/12/31 04:44:11;;;;;;;32.13;21.33;;;3.60;99.90;;;;;;5052621;28;20455;-66
2022/12/31 04:46:37;;;;;;;31.52;21.17;;;3.60;99.90;;;;;;5051879;28;20036;-67
2022/12/31 04:49:02;;;;;;;34.75;21.20;;;3.60;99.90;;;;;;5052572;28;20525;-66
2022/12/31 04:51:29;;;;;;;31.90;21.42;;;3.60;99.90;;;;;;5051658;28;20064;-67
2022/12/31 04:53:55;;;;;;;32.97;20.83;;;3.60;99.90;;;;;;5052593;28;20049;-67
2022/12/31 04:56:22;;;;;;;30.50;20.58;;;3.60;99.90;;;;;;5052225;28;20033;-66
2022/12/31 04:58:47;;;;;;;28.70;19.77;;;3.60;99.90;;;;;;5051848;28;20413;-67
2022/12/31 05:01:13;;;;;;;34.55;20.77;;;3.60;99.90;;;;;;5053528;28;20025;-67
2022/12/31 05:03:39;;;;;;;31.60;21.63;;;3.50;99.90;;;;;;5055392;28;20025;-67
2022/12/31 05:06:11;;;;;;;36.47;22.23;;;3.50;99.90;;;;;;5056086;28;20032;-66
2022/12/31 05:08:37;;;;;;;33.20;21.48;;;3.50;99.90;;;;;;5055308;28;20535;-66
2022/12/31 05:11:02;;;;;;;32.20;21.70;;;3.50;99.90;;;;;;5056107;28;20033;-66
2022/12/31 05:13:28;;;;;;;34.53;23.05;;;3.50;99.90;;;;;;5054230;28;20116;-69
2022/12/31 05:15:54;;;;;;;33.60;23.05;;;3.50;99.90;;;;;;5055775;28;20033;-67
2022/12/31 05:18:20;;;;;;;32.50;21.50;;;3.50;99.90;;;;;;5055772;28;20025;-67
2022/12/31 05:20:46;;;;;;;35.53;22.00;;;3.50;99.90;;;;;;5055226;28;20025;-67
2022/12/31 05:23:13;;;;;;;33.05;21.70;;;3.50;99.90;;;;;;5054207;28;20040;-67
2022/12/31 05:25:40;;;;;;;34.53;22.55;;;3.60;99.90;;;;;;5055202;28;20028;-67
2022/12/31 05:28:06;;;;;;;32.60;21.48;;;3.50;99.90;;;;;;5055642;28;20028;-67
2022/12/31 05:30:32;;;;;;;31.05;20.95;;;3.60;99.90;;;;;;5055132;28;20071;-67
2022/12/31 05:32:58;;;;;;;34.10;22.45;;;3.60;99.90;;;;;;5055634;28;20450;-66
2022/12/31 05:35:24;;;;;;;32.90;22.08;;;3.60;99.90;;;;;;5055425;28;20032;-67
2022/12/31 05:37:50;;;;;;;35.30;21.92;;;3.60;99.90;;;;;;5055207;28;20039;-66
2022/12/31 05:40:16;;;;;;;35.35;22.83;;;3.60;99.90;;;;;;5054865;28;20454;-67
2022/12/31 05:42:41;;;;;;;36.78;22.67;;;3.60;99.90;;;;;;5054804;28;20029;-67
2022/12/31 05:45:08;;;;;;;33.40;21.70;;;3.60;99.90;;;;;;5054368;28;20037;-65
2022/12/31 05:47:33;;;;;;;33.08;22.92;;;3.70;99.90;;;;;;5054702;28;20428;-67
2022/12/31 05:49:59;;;;;;;34.60;22.77;;;3.70;99.90;;;;;;5055164;28;20112;-66
2022/12/31 05:52:25;;;;;;;35.10;22.35;;;3.70;99.90;;;;;;5055184;28;20442;-66
2022/12/31 05:54:50;;;;;;;30.58;21.55;;;3.70;99.90;;;;;;5054614;28;20024;-66
2022/12/31 05:57:16;;;;;;;36.70;22.85;;;3.70;99.90;;;;;;5055020;28;20106;-66
2022/12/31 05:59:42;;;;;;;33.20;21.83;;;3.70;99.90;;;;;;5054532;28;20029;-66
2022/12/31 06:02:07;;;;;;;34.47;22.17;;;3.70;99.90;;;;;;5055090;28;20040;-67
2022/12/31 06:04:33;;;;;;;33.55;21.30;;;3.80;99.90;;;;;;5054109;28;20025;-67
2022/12/31 06:06:59;;;;;;;32.30;21.08;;;3.80;99.90;;;;;;5054722;28;20074;-67
2022/12/31 06:09:24;;;;;;;33.78;22.60;;;3.80;99.90;;;;;;5054496;28;20025;-67
2022/12/31 06:11:50;;;;;;;31.73;21.02;;;3.80;99.90;;;;;;5054377;28;20017;-67
2022/12/31 06:14:16;;;;;;;30.10;20.05;;;3.80;99.90;;;;;;5054152;28;20056;-66
2022/12/31 06:16:42;;;;;;;31.20;19.88;;;3.80;99.90;;;;;;5054334;28;20029;-67
2022/12/31 06:19:08;;;;;;;27.33;19.50;;;3.80;99.90;;;;;;5054683;28;20025;-67
2022/12/31 06:21:34;;;;;;;27.65;18.55;;;3.90;99.90;;;;;;5054473;28;20025;-67
2022/12/31 06:23:59;;;;;;;27.80;18.58;;;3.90;99.90;;;;;;5054714;28;20485;-67
2022/12/31 06:26:26;;;;;;;28.00;19.50;;;3.90;99.90;;;;;;5054537;28;20037;-67
2022/12/31 06:28:52;;;;;;;26.77;18.80;;;3.90;99.90;;;;;;5054259;28;20537;-67
2022/12/31 06:31:17;;;;;;;29.55;19.10;;;3.90;99.90;;;;;;5054174;28;20150;-67
2022/12/31 06:33:45;;;;;;;26.25;18.60;;;4.00;99.90;;;;;;5053744;28;20059;-67
2022/12/31 06:36:13;;;;;;;29.10;19.30;;;4.00;99.90;;;;;;5053070;28;20037;-66
2022/12/31 06:38:40;;;;;;;27.27;18.95;;;4.00;99.90;;;;;;5053824;28;20071;-67
2022/12/31 06:41:09;;;;;;;26.40;18.98;;;4.00;99.90;;;;;;5054266;28;20025;-67
2022/12/31 06:43:35;;;;;;;29.70;19.75;;;4.00;99.90;;;;;;5054075;28;20028;-69
2022/12/31 06:46:02;;;;;;;31.52;20.75;;;4.10;99.90;;;;;;5054180;28;20409;-66
2022/12/31 06:48:28;;;;;;;27.17;19.83;;;4.10;99.90;;;;;;5054044;28;20033;-67
2022/12/31 06:50:53;;;;;;;30.30;20.23;;;4.10;99.90;;;;;;5053468;28;20031;-67
2022/12/31 06:53:19;;;;;;;28.75;19.60;;;4.10;99.90;;;;;;5053777;28;20029;-66
2022/12/31 06:55:46;;;;;;;27.52;19.60;;;4.10;99.90;;;;;;5053178;28;20025;-66
2022/12/31 06:58:13;;;;;;;26.88;19.05;;;4.10;99.90;;;;;;5053776;28;20108;-66
2022/12/31 07:01:24;;;;;;;29.90;19.23;;;4.10;99.90;;;;;;5053382;28;20029;-67
2022/12/31 07:03:56;;;;;;;;;;;4.10;99.90;;;;;;5053749;28;20104;-66
2022/12/31 07:06:28;;;;;;;;;;;4.10;99.90;;;;;;5054052;28;20238;-66
2022/12/31 07:09:28;;;;;;;26.20;17.77;;;4.20;99.90;;;;;;5052931;28;20357;-66
2022/12/31 07:12:02;;;;;;;27.33;18.65;;;4.20;99.90;;;;;;5053184;28;20025;-66
2022/12/31 07:15:05;;;;;;;27.30;19.38;;;4.20;99.90;;;;;;5053956;28;20036;-65
2022/12/31 07:17:46;;;;;;;28.20;19.83;;;4.20;99.90;;;;;;5053716;28;20111;-66
2022/12/31 07:20:17;;;;;;;29.45;19.65;;;4.30;99.90;;;;;;5053430;28;20029;-66
2022/12/31 07:22:44;;;;;;;28.23;19.92;;;4.30;99.90;;;;;;5053075;28;20064;-66
2022/12/31 07:25:15;;;;;;;30.70;21.13;;;4.30;99.90;;;;;;5053273;28;20033;-66
2022/12/31 07:28:02;;;;;;;29.13;20.30;;;4.30;99.90;;;;;;5052870;28;20102;-66
2022/12/31 07:30:57;;;;;;;31.67;21.25;;;4.30;99.90;;;;;;5053261;28;20025;-65
2022/12/31 07:33:41;;;;;;;31.42;20.48;;;4.40;99.90;;;;;;5053136;28;20025;-65
2022/12/31 07:36:39;;;;;;;31.70;20.95;;;4.40;99.90;;;;;;5053251;28;20086;-65
2022/12/31 07:39:10;;;;;;;31.27;22.13;;;4.40;99.90;;;;;;5053212;28;20053;-67
2022/12/31 07:41:36;;;;;;;35.45;22.70;;;4.40;99.90;;;;;;5053203;28;20029;-65
2022/12/31 07:44:06;;;;;;;32.92;21.58;;;4.40;99.90;;;;;;5052774;28;20028;-67
2022/12/31 07:46:54;;;;;;;36.83;23.30;;;4.40;99.90;;;;;;5052472;28;20029;-67
2022/12/31 07:49:20;;;;;;;32.00;20.88;;;4.40;99.90;;;;;;5052424;28;20285;-67
2022/12/31 07:51:45;;;;;;;30.63;19.98;;;4.50;99.90;;;;;;5052489;28;20449;-67
2022/12/31 07:54:12;;;;;;;30.08;20.45;;;4.50;99.90;;;;;;5052806;28;20028;-67
2022/12/31 07:56:38;;;;;;;31.77;21.50;;;4.50;99.90;;;;;;5052869;28;20091;-66
2022/12/31 07:59:12;;;;;;;30.15;21.85;;;4.50;99.90;;;;;;5052117;28;20033;-66
2022/12/31 08:02:19;;;;;;;33.90;21.98;;;4.50;99.90;;;;;;5052811;28;20027;-67
2022/12/31 08:04:45;;;;;;;35.33;23.63;;;4.50;99.90;;;;;;5052058;28;20082;-67
2022/12/31 08:07:22;;;;;;;32.05;21.65;;;4.50;99.90;;;;;;5052467;28;20036;-67
2022/12/31 08:09:55;;;;;;;31.92;20.55;;;4.60;99.90;;;;;;5052414;28;20020;-66
2022/12/31 08:12:24;;;;;;;35.22;22.13;;;4.60;99.90;;;;;;5052632;28;20025;-65
2022/12/31 08:14:50;;;;;;;34.58;22.05;;;4.60;99.90;;;;;;5052411;28;20025;-66
2022/12/31 08:17:17;;;;;;;31.00;21.77;;;4.70;99.90;;;;;;5053021;28;20031;-66
2022/12/31 08:19:44;;;;;;;30.23;21.30;;;4.70;99.90;;;;;;5052168;28;20090;-66
2022/12/31 08:22:37;;;;;;;29.25;20.80;;;4.80;99.90;;;;;;5052602;28;20029;-65
2022/12/31 08:25:36;;;;;;;29.55;20.38;;;4.90;99.90;;;;;;5052024;28;20410;-66
2022/12/31 08:28:24;;;;;;;30.33;20.75;;;5.00;99.90;;;;;;5052677;28;20469;-65
2022/12/31 08:31:04;;;;;;;30.30;20.35;;;5.10;99.90;;;;;;5051867;28;20347;-65
2022/12/31 08:33:47;;;;;;;31.00;21.08;;;5.10;99.90;;;;;;5052277;28;20466;-65
2022/12/31 08:36:25;;;;;;;32.22;21.67;;;5.20;99.90;;;;;;5054143;28;20090;-66
2022/12/31 08:39:21;;;;;;;31.25;21.10;;;5.20;99.90;;;;;;5056368;28;20072;-66
2022/12/31 08:41:52;;;;;;;32.20;20.35;;;5.30;99.90;;;;;;5056128;28;20104;-66
2022/12/31 08:44:49;;;;;;;30.23;20.95;;;5.40;99.90;;;;;;5056739;28;20021;-66
2022/12/31 08:47:44;;;;;;;28.70;19.67;;;5.50;99.90;;;;;;5050947;28;20168;-66
2022/12/31 08:50:15;;;;;;;28.63;19.42;;;5.50;99.90;;;;;;5056452;28;20338;-66
2022/12/31 08:52:41;;;;;;;29.77;20.35;;;5.60;99.90;;;;;;5056131;28;20029;-66
2022/12/31 08:55:11;;;;;;;32.22;19.10;;;5.60;99.90;;;;;;5055558;28;20470;-66
2022/12/31 08:57:43;;;;;;;31.10;19.98;;;5.60;99.90;;;;;;5055961;28;20024;-65
2022/12/31 09:00:12;;;;;;;31.38;21.55;;;5.70;99.90;;;;;;5055262;28;20021;-65
2022/12/31 09:03:03;;;;;;;32.20;22.50;;;5.70;99.90;;;;;;5055759;28;20052;-66
2022/12/31 09:05:52;;;;;;;27.70;19.60;;;5.80;99.90;;;;;;5055376;28;20035;-66
2022/12/31 09:08:32;;;;;;;32.28;21.17;;;5.80;99.90;;;;;;5055668;28;20025;-65
2022/12/31 09:11:01;;;;;;;29.25;20.10;;;5.90;99.90;;;;;;5055193;28;20025;-66
2022/12/31 09:14:06;;;;;;;29.17;20.33;;;5.90;99.90;;;;;;5055317;28;20035;-65
2022/12/31 09:16:34;;;;;;;29.08;19.38;;;6.00;99.90;;;;;;5055765;28;20040;-66
2022/12/31 09:19:00;;;;;;;33.17;21.15;;;6.00;99.90;;;;;;5055245;28;20075;-65
2022/12/31 09:21:26;;;;;;;31.85;20.75;;;6.00;99.90;;;;;;5054130;28;20029;-66
2022/12/31 09:23:52;;;;;;;32.97;20.90;;;6.00;99.90;;;;;;5055139;28;20024;-66
2022/12/31 09:26:41;;;;;;;31.00;19.65;;;6.00;99.90;;;;;;5055399;28;20037;-66
2022/12/31 09:29:29;;;;;;;29.83;20.45;;;6.10;99.90;;;;;;5055050;28;20033;-66
2022/12/31 09:32:03;;;;;;;29.92;20.15;;;6.10;99.90;;;;;;5054904;28;20017;-66
2022/12/31 09:34:41;;;;;;;30.10;20.85;;;6.10;99.90;;;;;;5054994;28;20381;-66
2022/12/31 09:37:15;;;;;;;30.02;21.73;;;6.10;99.90;;;;;;5054888;28;20025;-66
2022/12/31 09:39:46;;;;;;;30.95;20.27;;;6.10;99.90;;;;;;5055223;28;20061;-66
2022/12/31 09:42:39;;;;;;;31.52;20.67;;;6.10;99.90;;;;;;5055124;28;20029;-66
2022/12/31 09:45:42;;;;;;;30.60;21.05;;;6.10;99.90;;;;;;5054781;28;20060;-66
2022/12/31 09:48:36;;;;;;;34.78;22.58;;;6.10;99.90;;;;;;5053326;28;20089;-67
2022/12/31 09:51:31;;;;;;;34.17;22.40;;;6.10;99.90;;;;;;5054336;28;20028;-66
2022/12/31 09:54:22;;;;;;;33.97;22.67;;;6.20;99.90;;;;;;5053994;28;20142;-66
2022/12/31 09:57:03;;;;;;;33.15;22.42;;;6.20;99.90;;;;;;5054658;28;20458;-66
2022/12/31 09:59:37;;;;;;;33.70;23.60;;;6.30;99.90;;;;;;5054882;28;20028;-66
2022/12/31 10:02:37;;;;;;;31.35;20.23;;;6.30;99.90;;;;;;5053050;28;20501;-66
2022/12/31 10:05:40;;;;;;;31.70;20.45;;;6.30;99.90;;;;;;5054258;28;20039;-66
2022/12/31 10:08:16;;;;;;;29.88;20.38;;;6.40;99.90;;;;;;5054621;28;20041;-65
2022/12/31 10:10:53;;;;;;;28.65;20.10;;;6.40;99.90;;;;;;5054949;28;20414;-66
2022/12/31 10:13:24;;;;;;;26.15;18.88;;;6.40;99.90;;;;;;5054093;28;20478;-66
2022/12/31 10:16:18;;;;;;;24.67;18.80;;;6.50;99.90;;;;;;5054180;28;20025;-70
2022/12/31 10:19:12;;;;;;;26.80;19.05;;;6.50;99.90;;;;;;5054514;28;20025;-67
2022/12/31 10:21:53;;;;;;;26.30;18.75;;;6.50;99.90;;;;;;5054090;28;20059;-67
2022/12/31 10:24:41;;;;;;;27.08;19.15;;;6.50;99.90;;;;;;5054446;28;20036;-67
2022/12/31 10:27:18;;;;;;;27.52;19.58;;;6.50;99.90;;;;;;5053777;28;20040;-68
2022/12/31 10:30:02;;;;;;;26.58;18.85;;;6.50;99.90;;;;;;5054212;28;20029;-68
2022/12/31 10:33:03;;;;;;;24.60;17.80;;;6.60;99.90;;;;;;5054356;28;20111;-67
2022/12/31 10:35:58;;;;;;;30.23;20.45;;;6.60;99.90;;;;;;5040295;28;20041;-68
2022/12/31 10:38:46;;;;;;;31.90;20.08;;;6.60;99.90;;;;;;5053891;28;20028;-68
2022/12/31 10:41:56;;;;;;;29.52;19.25;;;6.70;99.90;;;;;;5053093;28;20235;-68
2022/12/31 10:44:49;;;;;;;27.25;18.80;;;6.70;99.90;;;;;;5028363;28;20036;-66
2022/12/31 10:47:40;;;;;;;26.92;19.42;;;6.70;99.90;;;;;;5053634;28;20033;-68
2022/12/31 10:50:23;;;;;;;27.13;19.42;;;6.80;99.90;;;;;;5053243;28;20096;-68
2022/12/31 10:53:14;;;;;;;33.03;22.27;;;6.90;99.90;;;;;;5052492;28;20394;-67
2022/12/31 10:55:57;;;;;;;27.83;21.10;;;6.90;99.90;;;;;;5053824;28;20028;-67
2022/12/31 10:58:29;;;;;;;27.20;19.50;;;7.00;99.90;;;;;;5053303;28;20179;-67
2022/12/31 11:01:08;;;;;;;30.73;20.50;;;7.00;99.90;;;;;;5053105;28;20036;-68
2022/12/31 11:04:10;;;;;;;31.60;22.25;;;7.00;99.90;;;;;;5053700;28;20108;-67
2022/12/31 11:06:39;;;;;;;30.50;20.77;;;7.00;99.90;;;;;;5053600;28;20033;-67
2022/12/31 11:09:31;;;;;;;27.65;20.50;;;7.10;99.90;;;;;;5053917;28;20079;-68
2022/12/31 11:12:33;;;;;;;25.63;19.08;;;7.10;99.90;;;;;;5052767;28;20029;-68
2022/12/31 11:15:05;;;;;;;27.92;18.35;;;7.20;99.90;;;;;;5052937;28;20029;-68
2022/12/31 11:17:57;;;;;;;30.45;21.75;;;7.30;99.90;;;;;;5053454;28;20528;-68
2022/12/31 11:20:36;;;;;;;24.55;18.38;;;7.40;99.90;;;;;;5049422;28;20053;-68
2022/12/31 11:23:08;;;;;;;32.17;21.35;;;7.50;99.90;;;;;;5053200;28;20025;-68
2022/12/31 11:25:37;;;;;;;28.25;20.38;;;7.50;99.90;;;;;;5053268;28;20035;-68
2022/12/31 11:28:25;;;;;;;29.33;20.48;;;7.60;99.90;;;;;;5052856;28;20033;-68
2022/12/31 11:31:15;;;;;;;24.42;18.63;;;7.60;99.90;;;;;;5053153;28;20036;-68
2022/12/31 11:34:02;;;;;;;28.80;19.85;;;7.70;99.90;;;;;;5052959;28;20036;-68
2022/12/31 11:36:51;;;;;;;27.60;19.83;;;7.70;99.90;;;;;;5052693;28;20536;-68
2022/12/31 11:39:20;;;;;;;30.70;20.60;;;7.80;99.90;;;;;;5052685;28;20041;-68
2022/12/31 11:41:53;;;;;;;28.30;19.50;;;7.80;99.90;;;;;;5052837;28;20029;-67
2022/12/31 11:44:30;;;;;;;25.15;18.83;;;7.80;99.90;;;;;;5052939;28;20033;-70
2022/12/31 11:47:15;;;;;;;32.17;20.77;;;7.90;99.90;;;;;;5054817;28;20066;-70
2022/12/31 11:49:50;;;;;;;32.50;20.90;;;8.00;99.90;;;;;;5063017;28;20037;-68
2022/12/31 11:52:36;;;;;;;28.05;19.75;;;8.00;99.90;;;;;;5072149;28;20421;-68
2022/12/31 11:55:20;;;;;;;27.20;19.45;;;8.00;99.90;;;;;;5054028;28;20108;-67
2022/12/31 11:57:49;;;;;;;26.45;20.15;;;8.10;99.90;;;;;;5054559;28;20075;-68
2022/12/31 12:00:19;;;;;;;29.92;20.77;;;8.20;99.90;;;;;;5066104;28;20060;-72
2022/12/31 12:02:52;;;;;;;28.27;20.05;;;8.20;99.90;;;;;;5052248;28;20040;-70
2022/12/31 12:05:21;;;;;;;26.48;20.38;;;8.20;99.90;;;;;;5069987;28;20028;-70
2022/12/31 12:07:48;;;;;;;25.90;18.70;;;8.20;99.90;;;;;;5067892;28;20063;-71
2022/12/31 12:10:26;;;;;;;28.40;19.50;;;8.30;99.90;;;;;;5059442;28;20036;-70
2022/12/31 12:12:54;;;;;;;27.35;19.98;;;8.30;99.90;;;;;;5071719;28;20021;-71
2022/12/31 12:15:31;;;;;;;26.15;19.63;;;8.30;99.90;;;;;;5064191;28;20035;-70
2022/12/31 12:18:03;;;;;;;27.60;18.75;;;8.30;99.90;;;;;;5071797;28;20039;-77
2022/12/31 12:20:34;;;;;;;27.55;19.55;;;8.30;99.90;;;;;;5072023;28;20107;-68
2022/12/31 12:23:12;;;;;;;51.63;34.50;;;8.30;99.90;;;;;;5055738;28;20068;-70
2022/12/31 12:25:41;;;;;;;32.40;22.20;;;8.30;99.90;;;;;;5071977;28;20078;-71
2022/12/31 12:28:41;;;;;;;28.73;20.67;;;8.40;99.90;;;;;;5071654;28;20021;-71
2022/12/31 12:31:21;;;;;;;26.65;18.73;;;8.40;99.90;;;;;;5058341;28;20120;-71
2022/12/31 12:33:48;;;;;;;26.00;18.80;;;8.30;99.90;;;;;;5072317;28;20056;-71
2022/12/31 12:36:17;;;;;;;27.08;18.58;;;8.30;99.90;;;;;;5071791;28;20040;-71
2022/12/31 12:38:43;;;;;;;24.98;18.80;;;8.30;99.90;;;;;;5070528;28;20520;-70
2022/12/31 12:41:17;;;;;;;25.65;18.02;;;8.40;99.90;;;;;;5072030;28;20383;-71
2022/12/31 12:43:43;;;;;;;28.73;19.40;;;8.30;99.90;;;;;;5072008;28;20039;-71
2022/12/31 12:46:37;;;;;;;28.63;20.67;;;8.30;99.90;;;;;;5071722;28;20029;-72
2022/12/31 12:49:04;;;;;;;26.88;18.75;;;8.30;99.90;;;;;;5062043;28;20064;-71
2022/12/31 12:51:49;;;;;;;28.17;19.88;;;8.30;99.90;;;;;;5054003;28;20017;-71
2022/12/31 12:54:21;;;;;;;26.98;19.27;;;8.20;99.90;;;;;;5053630;28;20021;-71
2022/12/31 12:57:01;;;;;;;27.50;19.85;;;8.20;99.90;;;;;;5054154;28;20020;-71
2022/12/31 12:59:33;;;;;;;26.23;19.10;;;8.20;99.90;;;;;;5058022;28;20108;-70
2022/12/31 13:02:34;;;;;;;29.08;20.73;;;8.20;99.90;;;;;;5067636;28;20117;-69
2022/12/31 13:05:02;;;;;;;30.43;21.20;;;8.20;99.90;;;;;;5063578;28;20032;-74
2022/12/31 13:07:48;;;;;;;31.20;21.20;;;8.20;99.90;;;;;;5056021;28;20091;-70
2022/12/31 13:10:48;;;;;;;30.20;20.33;;;8.20;99.90;;;;;;5062635;28;20112;-70
2022/12/31 13:13:33;;;;;;;31.27;21.90;;;8.20;99.90;;;;;;5067848;28;20081;-70
2022/12/31 13:15:59;;;;;;;33.63;21.90;;;8.30;99.90;;;;;;5044017;28;20378;-72
2022/12/31 13:18:39;;;;;;;30.05;21.90;;;8.30;99.90;;;;;;5051069;28;20032;-70
2022/12/31 13:21:47;;;;;;;28.67;21.55;;;8.30;99.90;;;;;;5049951;28;20029;-72
2022/12/31 13:24:28;;;;;;;28.90;20.33;;;8.30;99.90;;;;;;5010265;28;20383;-71
2022/12/31 13:27:09;;;;;;;33.15;22.50;;;8.30;99.90;;;;;;5058262;28;20041;-71